createdAt,value
2019-03-25T00:01:18.941Z,3.10
2019-03-25T00:02:51.774Z,3.08
2019-03-25T00:04:24.698Z,3.58
2019-03-25T00:05:57.549Z,3.27
2019-03-25T00:07:30.258Z,3.33
2019-03-25T00:09:05.687Z,3.27
2019-03-25T00:10:38.707Z,3.30
2019-03-25T00:12:11.542Z,3.30
2019-03-25T00:13:44.316Z,3.60
2019-03-25T00:15:17.161Z,3.37
2019-03-25T00:16:50.030Z,3.25
2019-03-25T00:18:22.824Z,3.80
2019-03-25T00:19:55.678Z,3.50
2019-03-25T00:21:28.418Z,3.58
2019-03-25T00:23:01.274Z,3.30
2019-03-25T00:24:38.744Z,3.62
2019-03-25T00:26:08.607Z,3.50
2019-03-25T00:27:41.244Z,3.20
2019-03-25T00:29:14.057Z,3.52
2019-03-25T00:30:46.915Z,3.45
2019-03-25T00:32:19.745Z,3.10
2019-03-25T00:33:52.535Z,3.00
2019-03-25T00:35:25.259Z,3.30
2019-03-25T00:36:58.058Z,3.10
2019-03-25T00:38:30.909Z,3.67
2019-03-25T00:40:04.871Z,3.30
2019-03-25T00:41:37.572Z,3.60
2019-03-25T00:43:10.350Z,3.60
2019-03-25T00:44:43.249Z,3.22
2019-03-25T00:46:16.021Z,3.50
2019-03-25T00:47:48.875Z,3.25
2019-03-25T00:49:21.556Z,3.15
2019-03-25T00:50:54.392Z,3.12
2019-03-25T00:52:27.211Z,3.10
2019-03-25T00:53:59.893Z,3.20
2019-03-25T00:55:32.735Z,3.00
2019-03-25T00:57:05.655Z,3.55
2019-03-25T00:58:38.478Z,3.22
2019-03-25T01:00:11.711Z,3.35
2019-03-25T01:01:44.429Z,3.37
2019-03-25T01:03:17.241Z,3.10
2019-03-25T01:04:49.908Z,3.45
2019-03-25T01:06:22.647Z,3.62
2019-03-25T01:07:55.461Z,3.15
2019-03-25T01:09:28.286Z,3.27
2019-03-25T01:11:00.976Z,3.00
2019-03-25T01:12:33.764Z,3.05
2019-03-25T01:14:06.595Z,3.30
2019-03-25T01:15:39.399Z,3.50
2019-03-25T01:17:12.321Z,3.65
2019-03-25T01:18:45.122Z,3.55
2019-03-25T01:20:17.987Z,3.62
2019-03-25T01:21:50.910Z,3.98
2019-03-25T01:23:23.702Z,3.33
2019-03-25T01:25:01.753Z,3.45
2019-03-25T01:26:31.243Z,4.10
2019-03-25T01:28:04.189Z,3.92
2019-03-25T01:29:36.838Z,3.60
2019-03-25T01:31:09.710Z,3.72
2019-03-25T01:32:42.671Z,4.10
2019-03-25T01:34:15.484Z,4.33
2019-03-25T01:35:48.303Z,3.77
2019-03-25T01:37:20.986Z,3.65
2019-03-25T01:38:53.776Z,3.70
2019-03-25T01:40:26.836Z,4.40
2019-03-25T01:41:59.839Z,4.42
2019-03-25T01:43:32.740Z,4.53
2019-03-25T01:45:05.762Z,4.10
2019-03-25T01:46:38.609Z,4.67
2019-03-25T01:48:11.381Z,4.78
2019-03-25T01:49:44.220Z,4.30
2019-03-25T01:51:17.260Z,4.55
2019-03-25T01:52:50.257Z,4.78
2019-03-25T01:54:23.307Z,4.90
2019-03-25T01:55:56.172Z,4.83
2019-03-25T01:57:29.232Z,4.85
2019-03-25T01:59:02.267Z,5.45
2019-03-25T02:00:35.586Z,4.70
2019-03-25T02:02:08.651Z,5.03
2019-03-25T02:03:41.672Z,5.45
2019-03-25T02:05:14.544Z,5.03
2019-03-25T02:06:47.545Z,5.12
2019-03-25T02:08:20.616Z,4.97
2019-03-25T02:09:53.627Z,4.97
2019-03-25T02:11:26.689Z,5.35
2019-03-25T02:12:59.719Z,5.40
2019-03-25T02:14:32.759Z,4.90
2019-03-25T02:16:05.706Z,5.53
2019-03-25T02:17:38.591Z,4.95
2019-03-25T02:19:11.575Z,5.55
2019-03-25T02:20:44.421Z,5.22
2019-03-25T02:22:17.477Z,5.20
2019-03-25T02:23:50.380Z,5.28
2019-03-25T02:25:25.683Z,5.58
2019-03-25T02:26:58.132Z,5.28
2019-03-25T02:28:31.139Z,5.50
2019-03-25T02:30:04.667Z,5.80
2019-03-25T02:31:37.698Z,5.55
2019-03-25T02:33:10.682Z,5.70
2019-03-25T02:34:43.726Z,5.53
2019-03-25T02:36:16.763Z,5.17
2019-03-25T02:37:49.682Z,5.33
2019-03-25T02:39:22.779Z,4.55
2019-03-25T02:40:55.735Z,4.85
2019-03-25T02:42:28.789Z,4.87
2019-03-25T02:44:01.694Z,5.17
2019-03-25T02:45:34.717Z,5.70
2019-03-25T02:47:07.637Z,5.08
2019-03-25T02:48:40.649Z,5.53
2019-03-25T02:50:13.709Z,5.50
2019-03-25T02:51:46.808Z,5.65
2019-03-25T02:53:19.873Z,5.50
2019-03-25T02:54:52.889Z,5.40
2019-03-25T02:56:25.900Z,5.12
2019-03-25T02:57:58.845Z,5.22
2019-03-25T02:59:31.770Z,5.12
2019-03-25T03:01:04.837Z,4.92
2019-03-25T03:02:37.748Z,4.87
2019-03-25T03:04:10.831Z,5.42
2019-03-25T03:05:43.928Z,5.42
2019-03-25T03:07:16.946Z,5.35
2019-03-25T03:08:49.849Z,5.00
2019-03-25T03:10:22.856Z,5.10
2019-03-25T03:11:55.773Z,5.00
2019-03-25T03:13:28.788Z,5.15
2019-03-25T03:15:01.800Z,4.92
2019-03-25T03:16:34.959Z,4.58
2019-03-25T03:18:07.798Z,5.00
2019-03-25T03:19:40.859Z,4.83
2019-03-25T03:21:13.866Z,4.25
2019-03-25T03:22:46.826Z,4.75
2019-03-25T03:24:19.870Z,4.37
2019-03-25T03:25:57.819Z,4.65
2019-03-25T03:27:29.855Z,4.60
2019-03-25T03:29:02.408Z,4.60
2019-03-25T03:30:35.431Z,4.83
2019-03-25T03:32:08.550Z,5.12
2019-03-25T03:33:41.626Z,4.62
2019-03-25T03:35:14.700Z,4.67
2019-03-25T03:36:47.751Z,4.83
2019-03-25T03:38:20.839Z,4.22
2019-03-25T03:39:53.840Z,4.95
2019-03-25T03:41:26.844Z,4.97
2019-03-25T03:42:59.799Z,4.85
2019-03-25T03:44:32.792Z,5.83
2019-03-25T03:46:05.833Z,6.33
2019-03-25T03:47:38.927Z,8.55
2019-03-25T03:49:11.900Z,5.47
2019-03-25T03:50:44.948Z,5.83
2019-03-25T03:52:18.022Z,5.80
2019-03-25T03:53:50.946Z,6.12
2019-03-25T03:55:24.200Z,6.40
2019-03-25T03:56:57.191Z,8.38
2019-03-25T03:58:30.998Z,12.10
2019-03-25T04:00:04.312Z,9.50
2019-03-25T04:01:37.144Z,9.80
2019-03-25T04:03:09.951Z,8.10
2019-03-25T04:04:42.888Z,6.83
2019-03-25T04:06:16.049Z,6.78
2019-03-25T04:07:48.956Z,8.23
2019-03-25T04:09:21.812Z,8.58
2019-03-25T04:10:54.651Z,8.70
2019-03-25T04:12:27.316Z,7.60
2019-03-25T04:14:00.145Z,8.25
2019-03-25T04:15:32.902Z,7.47
2019-03-25T04:17:05.708Z,6.78
2019-03-25T04:18:38.653Z,5.83
2019-03-25T04:20:11.513Z,5.90
2019-03-25T04:21:44.378Z,6.30
2019-03-25T04:23:17.054Z,5.35
2019-03-25T04:24:49.844Z,6.10
2019-03-25T04:26:28.852Z,5.58
2019-03-25T04:27:57.221Z,5.35
2019-03-25T04:29:30.158Z,5.75
2019-03-25T04:31:02.929Z,5.80
2019-03-25T04:32:35.797Z,6.03
2019-03-25T04:34:08.683Z,5.55
2019-03-25T04:35:41.367Z,6.22
2019-03-25T04:37:14.118Z,5.33
2019-03-25T04:38:46.904Z,5.92
2019-03-25T04:40:19.751Z,6.12
2019-03-25T04:41:52.695Z,6.25
2019-03-25T04:43:25.492Z,6.45
2019-03-25T04:44:58.320Z,6.20
2019-03-25T04:46:31.235Z,6.42
2019-03-25T04:48:03.975Z,6.42
2019-03-25T04:49:36.839Z,6.60
2019-03-25T04:51:09.651Z,6.28
2019-03-25T04:52:42.428Z,6.10
2019-03-25T04:54:15.112Z,6.80
2019-03-25T04:55:47.981Z,5.72
2019-03-25T04:57:20.726Z,6.28
2019-03-25T04:58:53.565Z,6.85
2019-03-25T05:00:37.114Z,6.95
2019-03-25T05:02:09.832Z,6.53
2019-03-25T05:03:42.676Z,6.35
2019-03-25T05:05:15.532Z,6.22
2019-03-25T05:06:48.338Z,6.35
2019-03-25T05:08:21.025Z,7.05
2019-03-25T05:09:53.869Z,7.42
2019-03-25T05:11:30.820Z,6.47
2019-03-25T05:13:01.281Z,6.58
2019-03-25T05:14:33.981Z,7.05
2019-03-25T05:16:06.683Z,6.40
2019-03-25T05:17:39.517Z,7.37
2019-03-25T05:19:12.305Z,6.58
2019-03-25T05:20:45.005Z,7.15
2019-03-25T05:22:17.897Z,6.97
2019-03-25T05:23:50.712Z,7.40
2019-03-25T05:25:23.533Z,6.92
2019-03-25T05:26:56.413Z,7.15
2019-03-25T05:28:29.214Z,7.45
2019-03-25T05:30:01.893Z,8.28
2019-03-25T05:31:34.734Z,7.17
2019-03-25T05:33:07.561Z,7.17
2019-03-25T05:34:40.384Z,8.93
2019-03-25T05:36:13.080Z,8.00
2019-03-25T05:37:46.174Z,7.37
2019-03-25T05:39:19.012Z,7.70
2019-03-25T05:40:51.837Z,7.45
2019-03-25T05:42:24.664Z,7.03
2019-03-25T05:43:57.439Z,6.47
2019-03-25T05:45:30.271Z,6.95
2019-03-25T05:47:03.081Z,7.45
2019-03-25T05:48:35.775Z,6.67
2019-03-25T05:50:09.178Z,6.42
2019-03-25T05:51:42.295Z,6.33
2019-03-25T05:53:15.044Z,6.22
2019-03-25T05:54:47.881Z,6.67
2019-03-25T05:56:20.847Z,6.40
2019-03-25T05:57:53.689Z,6.72
2019-03-25T05:59:26.457Z,6.60
2019-03-25T06:00:59.240Z,6.85
2019-03-25T06:02:32.045Z,6.53
2019-03-25T06:04:04.934Z,6.58
2019-03-25T06:05:37.751Z,7.17
2019-03-25T06:07:10.509Z,7.12
2019-03-25T06:08:43.321Z,6.45
2019-03-25T06:10:16.129Z,7.15
2019-03-25T06:11:48.871Z,6.37
2019-03-25T06:13:21.661Z,6.65
2019-03-25T06:14:54.520Z,6.95
2019-03-25T06:16:27.345Z,6.53
2019-03-25T06:18:00.099Z,6.67
2019-03-25T06:19:32.921Z,7.25
2019-03-25T06:21:05.626Z,6.25
2019-03-25T06:22:38.398Z,6.58
2019-03-25T06:24:11.270Z,6.67
2019-03-25T06:25:44.112Z,6.80
2019-03-25T06:27:16.895Z,6.35
2019-03-25T06:28:49.605Z,6.80
2019-03-25T06:30:22.399Z,6.72
2019-03-25T06:31:55.213Z,6.37
2019-03-25T06:33:28.107Z,6.53
2019-03-25T06:35:00.924Z,6.67
2019-03-25T06:36:33.729Z,5.75
2019-03-25T06:38:06.464Z,6.72
2019-03-25T06:39:39.228Z,6.55
2019-03-25T06:41:12.085Z,6.22
2019-03-25T06:42:44.869Z,6.85
2019-03-25T06:44:17.886Z,5.97
2019-03-25T06:45:50.592Z,6.62
2019-03-25T06:47:23.333Z,7.20
2019-03-25T06:48:56.165Z,6.58
2019-03-25T06:50:29.005Z,6.62
2019-03-25T06:52:01.869Z,6.03
2019-03-25T06:53:34.740Z,6.92
2019-03-25T06:55:07.778Z,6.40
2019-03-25T06:56:40.600Z,6.67
2019-03-25T06:58:13.436Z,6.58
2019-03-25T06:59:46.285Z,6.20
2019-03-25T07:01:19.081Z,6.90
2019-03-25T07:02:51.718Z,6.10
2019-03-25T07:04:24.525Z,7.05
2019-03-25T07:05:57.392Z,7.45
2019-03-25T07:07:30.297Z,6.22
2019-03-25T07:09:04.172Z,7.47
2019-03-25T07:10:37.460Z,6.75
2019-03-25T07:12:10.256Z,6.37
2019-03-25T07:13:43.255Z,7.25
2019-03-25T07:15:19.613Z,6.45
2019-03-25T07:16:52.332Z,6.30
2019-03-25T07:18:26.015Z,6.28
2019-03-25T07:19:58.837Z,7.40
2019-03-25T07:21:31.551Z,6.30
2019-03-25T07:23:04.484Z,6.65
2019-03-25T07:24:37.253Z,6.92
2019-03-25T07:26:10.073Z,6.37
2019-03-25T07:27:42.892Z,6.03
2019-03-25T07:29:15.660Z,6.90
2019-03-25T07:30:48.522Z,6.33
2019-03-25T07:32:21.360Z,6.37
2019-03-25T07:33:54.155Z,6.62
2019-03-25T07:35:27.037Z,6.92
2019-03-25T07:36:59.830Z,7.10
2019-03-25T07:38:32.534Z,7.28
2019-03-25T07:40:07.379Z,6.47
2019-03-25T07:41:40.187Z,6.33
2019-03-25T07:43:13.062Z,6.87
2019-03-25T07:44:45.936Z,7.45
2019-03-25T07:46:18.724Z,6.90
2019-03-25T07:47:51.535Z,6.78
2019-03-25T07:49:24.404Z,6.30
2019-03-25T07:50:57.241Z,6.83
2019-03-25T07:52:30.080Z,6.60
2019-03-25T07:54:02.958Z,7.30
2019-03-25T07:55:35.884Z,7.50
2019-03-25T07:57:08.675Z,7.62
2019-03-25T07:58:41.436Z,7.25
2019-03-25T08:00:14.395Z,7.37
2019-03-25T08:01:47.398Z,7.35
2019-03-25T08:03:20.260Z,8.05
2019-03-25T08:04:53.160Z,7.92
2019-03-25T08:06:26.006Z,7.47
2019-03-25T08:07:58.920Z,6.50
2019-03-25T08:09:31.769Z,6.00
2019-03-25T08:11:04.693Z,6.55
2019-03-25T08:12:37.632Z,6.35
2019-03-25T08:14:10.573Z,6.95
2019-03-25T08:15:43.281Z,6.67
2019-03-25T08:17:16.044Z,6.53
2019-03-25T08:18:48.889Z,6.50
2019-03-25T08:20:21.713Z,6.15
2019-03-25T08:21:54.514Z,5.72
2019-03-25T08:23:27.332Z,6.10
2019-03-25T08:25:00.331Z,5.85
2019-03-25T08:26:33.317Z,5.72
2019-03-25T08:28:06.095Z,6.33
2019-03-25T08:29:38.898Z,5.65
2019-03-25T08:31:11.724Z,6.10
2019-03-25T08:32:44.455Z,6.50
2019-03-25T08:34:17.251Z,19.00
2019-03-25T08:35:50.045Z,6.40
2019-03-25T08:37:22.878Z,23.42
2019-03-25T08:38:55.711Z,5.10
2019-03-25T08:40:28.559Z,4.42
2019-03-25T08:42:01.228Z,4.37
2019-03-25T08:43:34.039Z,5.15
2019-03-25T08:45:07.001Z,4.40
2019-03-25T08:46:39.776Z,4.90
2019-03-25T08:48:12.599Z,4.42
2019-03-25T08:49:45.279Z,4.28
2019-03-25T08:51:18.104Z,3.92
2019-03-25T08:52:50.905Z,4.83
2019-03-25T08:54:23.650Z,4.53
2019-03-25T08:55:56.335Z,4.70
2019-03-25T08:57:29.195Z,4.37
2019-03-25T08:59:02.030Z,4.50
2019-03-25T09:00:34.858Z,4.47
2019-03-25T09:02:07.666Z,4.72
2019-03-25T09:03:40.381Z,4.05
2019-03-25T09:05:13.154Z,4.20
2019-03-25T09:06:47.822Z,4.25
2019-03-25T09:08:20.577Z,4.42
2019-03-25T09:09:53.365Z,4.00
2019-03-25T09:11:26.176Z,4.10
2019-03-25T09:12:58.978Z,3.72
2019-03-25T09:14:31.795Z,3.55
2019-03-25T09:16:04.628Z,3.20
2019-03-25T09:17:37.444Z,3.08
2019-03-25T09:19:10.230Z,3.33
2019-03-25T09:20:43.061Z,3.22
2019-03-25T09:22:15.871Z,3.33
2019-03-25T09:23:48.731Z,3.17
2019-03-25T09:25:21.576Z,3.20
2019-03-25T09:26:54.414Z,3.52
2019-03-25T09:28:27.202Z,3.25
2019-03-25T09:29:59.892Z,3.47
2019-03-25T09:31:37.056Z,3.80
2019-03-25T09:33:07.670Z,3.35
2019-03-25T09:34:40.422Z,3.33
2019-03-25T09:36:14.002Z,3.40
2019-03-25T09:37:46.633Z,3.40
2019-03-25T09:39:19.339Z,3.40
2019-03-25T09:40:52.153Z,3.20
2019-03-25T09:42:24.819Z,3.15
2019-03-25T09:43:57.625Z,3.35
2019-03-25T09:45:30.388Z,2.95
2019-03-25T09:47:03.456Z,2.90
2019-03-25T09:48:36.321Z,3.27
2019-03-25T09:50:10.064Z,2.15
2019-03-25T09:51:42.879Z,2.30
2019-03-25T09:53:15.681Z,2.00
2019-03-25T09:54:48.379Z,2.17
2019-03-25T09:56:21.084Z,2.30
2019-03-25T09:57:53.944Z,2.17
2019-03-25T09:59:26.758Z,1.85
2019-03-25T10:00:59.437Z,1.75
2019-03-25T10:02:32.294Z,1.82
2019-03-25T10:04:05.349Z,1.87
2019-03-25T10:05:38.187Z,2.10
2019-03-25T10:07:23.172Z,1.98
2019-03-25T10:08:56.044Z,1.90
2019-03-25T10:10:28.831Z,2.30
2019-03-25T10:12:01.726Z,1.98
2019-03-25T10:13:34.467Z,1.92
2019-03-25T10:15:08.565Z,1.90
2019-03-25T10:16:41.368Z,2.17
2019-03-25T10:18:14.263Z,1.90
2019-03-25T10:19:47.256Z,1.82
2019-03-25T10:21:20.066Z,1.55
2019-03-25T10:22:52.768Z,1.82
2019-03-25T10:24:27.789Z,1.87
2019-03-25T10:26:00.069Z,1.98
2019-03-25T10:27:32.888Z,1.90
2019-03-25T10:29:05.636Z,2.10
2019-03-25T10:30:38.459Z,1.72
2019-03-25T10:32:13.646Z,2.25
2019-03-25T10:33:49.005Z,2.37
2019-03-25T10:35:21.784Z,2.00
2019-03-25T10:36:57.458Z,1.95
2019-03-25T10:38:35.231Z,2.15
2019-03-25T10:40:08.613Z,2.00
2019-03-25T10:41:41.600Z,2.10
2019-03-25T10:43:14.259Z,2.05
2019-03-25T10:44:47.077Z,2.17
2019-03-25T10:46:19.990Z,1.92
2019-03-25T10:47:52.883Z,1.92
2019-03-25T10:49:25.735Z,2.40
2019-03-25T10:50:58.376Z,1.98
2019-03-25T10:52:31.257Z,1.90
2019-03-25T10:54:04.055Z,1.75
2019-03-25T10:55:36.885Z,1.75
2019-03-25T10:57:09.692Z,1.70
2019-03-25T10:58:45.076Z,1.95
2019-03-25T11:00:18.516Z,2.27
2019-03-25T11:01:51.391Z,2.00
2019-03-25T11:03:24.357Z,1.90
2019-03-25T11:04:57.098Z,1.90
2019-03-25T11:06:29.906Z,2.50
2019-03-25T11:08:02.752Z,2.42
2019-03-25T11:09:35.524Z,1.95
2019-03-25T11:11:08.439Z,2.05
2019-03-25T11:12:41.248Z,1.98
2019-03-25T11:14:17.464Z,1.70
2019-03-25T11:15:50.317Z,2.00
2019-03-25T11:17:24.683Z,1.82
2019-03-25T11:18:57.493Z,1.60
2019-03-25T11:20:30.180Z,1.57
2019-03-25T11:22:02.979Z,2.00
2019-03-25T11:23:35.972Z,1.70
2019-03-25T11:25:10.952Z,1.92
2019-03-25T11:26:43.904Z,1.70
2019-03-25T11:28:16.851Z,1.50
2019-03-25T11:29:49.663Z,1.60
2019-03-25T11:31:22.546Z,1.72
2019-03-25T11:32:55.359Z,1.45
2019-03-25T11:34:28.196Z,1.82
2019-03-25T11:36:02.687Z,1.67
2019-03-25T11:37:41.340Z,1.80
2019-03-25T11:39:14.271Z,1.80
2019-03-25T11:40:47.132Z,1.32
2019-03-25T11:42:20.003Z,1.60
2019-03-25T11:43:52.876Z,1.90
2019-03-25T11:45:25.720Z,1.35
2019-03-25T11:46:58.666Z,1.87
2019-03-25T11:48:31.590Z,1.70
2019-03-25T11:50:04.706Z,1.80
2019-03-25T11:51:37.601Z,1.85
2019-03-25T11:53:11.668Z,1.60
2019-03-25T11:54:47.068Z,1.82
2019-03-25T11:56:20.062Z,1.85
2019-03-25T11:57:55.367Z,1.87
2019-03-25T11:59:30.705Z,1.57
2019-03-25T12:01:03.791Z,1.62
2019-03-25T12:02:36.613Z,1.67
2019-03-25T12:12:05.002Z,1.40
2019-03-25T12:13:37.809Z,1.90
2019-03-25T12:15:10.938Z,1.80
2019-03-25T12:16:43.723Z,1.95
2019-03-25T12:18:16.505Z,1.60
2019-03-25T12:19:49.328Z,1.80
2019-03-25T12:21:22.205Z,1.37
2019-03-25T12:22:54.996Z,1.57
2019-03-25T12:24:27.702Z,1.82
2019-03-25T12:26:00.537Z,2.00
2019-03-25T12:27:33.393Z,1.60
2019-03-25T12:29:06.291Z,1.70
2019-03-25T12:30:39.076Z,1.77
2019-03-25T12:32:11.880Z,1.80
2019-03-25T12:33:44.770Z,1.80
2019-03-25T12:35:17.419Z,2.05
2019-03-25T12:36:50.166Z,1.80
2019-03-25T12:38:22.958Z,2.35
2019-03-25T12:39:55.627Z,2.10
2019-03-25T12:41:28.456Z,2.05
2019-03-25T12:43:01.246Z,1.95
2019-03-25T12:44:34.090Z,1.80
2019-03-25T12:46:06.893Z,2.33
2019-03-25T12:47:39.713Z,2.30
2019-03-25T12:49:12.477Z,1.87
2019-03-25T12:50:45.129Z,2.10
2019-03-25T12:52:17.957Z,1.80
2019-03-25T12:53:50.783Z,1.75
2019-03-25T12:55:23.534Z,1.80
2019-03-25T12:56:58.213Z,1.50
2019-03-25T12:58:31.024Z,1.65
2019-03-25T13:00:04.462Z,1.60
2019-03-25T13:01:37.169Z,1.55
2019-03-25T13:03:09.998Z,1.27
2019-03-25T13:04:42.774Z,1.35
2019-03-25T13:06:15.618Z,1.70
2019-03-25T13:07:48.459Z,1.70
2019-03-25T13:09:21.270Z,1.72
2019-03-25T13:10:54.048Z,1.80
2019-03-25T13:12:26.825Z,1.57
2019-03-25T13:13:59.566Z,1.57
2019-03-25T13:15:32.460Z,1.50
2019-03-25T13:17:05.289Z,1.30
2019-03-25T13:18:38.059Z,1.30
2019-03-25T13:20:10.839Z,1.40
2019-03-25T13:21:43.513Z,1.10
2019-03-25T13:23:16.331Z,1.35
2019-03-25T13:24:49.123Z,1.10
2019-03-25T13:26:21.761Z,1.50
2019-03-25T13:27:54.615Z,1.50
2019-03-25T13:29:27.376Z,1.27
2019-03-25T13:31:00.153Z,1.52
2019-03-25T13:32:32.894Z,1.62
2019-03-25T13:34:05.567Z,1.57
2019-03-25T13:35:38.418Z,1.57
2019-03-25T13:37:11.168Z,1.57
2019-03-25T13:38:43.896Z,1.47
2019-03-25T13:40:16.811Z,1.57
2019-03-25T13:41:49.645Z,1.65
2019-03-25T13:43:22.434Z,1.40
2019-03-25T13:44:57.616Z,1.50
2019-03-25T13:46:29.905Z,1.50
2019-03-25T13:48:02.730Z,1.30
2019-03-25T13:49:35.445Z,1.70
2019-03-25T13:51:08.272Z,1.55
2019-03-25T13:52:41.129Z,1.50
2019-03-25T13:54:14.030Z,1.60
2019-03-25T13:55:49.117Z,1.42
2019-03-25T13:57:24.288Z,1.40
2019-03-25T13:58:57.109Z,1.42
2019-03-25T14:00:40.184Z,1.37
2019-03-25T14:02:12.932Z,1.52
2019-03-25T14:03:45.725Z,1.30
2019-03-25T14:05:18.548Z,1.70
2019-03-25T14:06:51.324Z,1.80
2019-03-25T14:08:24.211Z,1.70
2019-03-25T14:09:57.061Z,1.40
2019-03-25T14:11:29.849Z,1.35
2019-03-25T14:13:02.676Z,1.50
2019-03-25T14:14:35.510Z,1.35
2019-03-25T14:16:08.196Z,1.22
2019-03-25T14:17:40.873Z,1.10
2019-03-25T14:19:13.532Z,1.12
2019-03-25T14:20:46.373Z,1.00
2019-03-25T14:22:19.165Z,1.20
2019-03-25T14:23:52.136Z,1.12
2019-03-25T14:25:24.965Z,1.40
2019-03-25T14:26:57.629Z,1.60
2019-03-25T14:28:30.491Z,1.35
2019-03-25T14:30:13.940Z,1.67
2019-03-25T14:31:39.433Z,1.70
2019-03-25T14:33:12.252Z,1.50
2019-03-25T14:34:45.290Z,1.52
2019-03-25T14:36:18.094Z,1.70
2019-03-25T14:37:50.948Z,1.80
2019-03-25T14:39:23.763Z,1.90
2019-03-25T14:40:56.579Z,1.60
2019-03-25T14:42:29.373Z,1.90
2019-03-25T14:44:02.238Z,2.00
2019-03-25T14:45:35.039Z,1.90
2019-03-25T14:47:07.912Z,2.20
2019-03-25T14:48:40.721Z,1.95
2019-03-25T14:50:13.696Z,2.02
2019-03-25T14:51:46.700Z,1.98
2019-03-25T14:53:19.555Z,2.40
2019-03-25T14:54:52.380Z,2.22
2019-03-25T14:56:25.317Z,2.20
2019-03-25T14:57:58.113Z,2.22
2019-03-25T14:59:31.002Z,2.40
2019-03-25T15:01:03.900Z,2.98
2019-03-25T15:02:36.590Z,2.37
2019-03-25T15:04:09.436Z,2.10
2019-03-25T15:05:42.084Z,2.15
2019-03-25T15:07:14.781Z,1.90
2019-03-25T15:08:47.399Z,1.82
2019-03-25T15:10:20.094Z,2.10
2019-03-25T15:11:52.857Z,2.40
2019-03-25T15:13:25.746Z,2.02
2019-03-25T15:14:58.529Z,2.10
2019-03-25T15:16:31.306Z,2.22
2019-03-25T15:18:14.856Z,2.10
2019-03-25T15:19:38.795Z,2.02
2019-03-25T15:21:11.588Z,1.90
2019-03-25T15:22:44.365Z,2.00
2019-03-25T15:24:17.232Z,1.95
2019-03-25T15:25:50.094Z,2.25
2019-03-25T15:27:22.905Z,1.80
2019-03-25T15:28:55.781Z,1.20
2019-03-25T15:30:35.869Z,1.20
2019-03-25T15:32:03.080Z,1.17
2019-03-25T15:33:35.854Z,1.07
2019-03-25T15:35:08.685Z,1.20
2019-03-25T15:36:41.535Z,1.60
2019-03-25T15:38:14.314Z,1.50
2019-03-25T15:39:47.211Z,1.67
2019-03-25T15:41:21.845Z,1.45
2019-03-25T15:42:54.612Z,1.30
2019-03-25T15:44:27.439Z,1.00
2019-03-25T15:46:00.295Z,1.17
2019-03-25T15:47:33.236Z,1.17
2019-03-25T15:49:06.141Z,1.17
2019-03-25T15:50:39.006Z,1.17
2019-03-25T15:52:11.897Z,1.42
2019-03-25T15:53:44.741Z,1.25
2019-03-25T15:55:17.585Z,1.20
2019-03-25T15:56:50.554Z,1.35
2019-03-25T15:58:26.225Z,1.30
2019-03-25T15:59:58.073Z,1.20
2019-03-25T16:01:30.839Z,1.20
2019-03-25T16:03:03.675Z,1.20
2019-03-25T16:04:36.380Z,1.25
2019-03-25T16:06:09.500Z,1.22
2019-03-25T16:07:42.275Z,1.35
2019-03-25T16:09:15.198Z,1.30
2019-03-25T16:10:48.154Z,1.35
2019-03-25T16:12:20.973Z,1.25
2019-03-25T16:13:53.781Z,1.25
2019-03-25T16:15:37.458Z,1.30
2019-03-25T16:17:10.163Z,1.50
2019-03-25T16:18:42.973Z,1.20
2019-03-25T16:20:15.832Z,1.35
2019-03-25T16:21:51.901Z,1.30
2019-03-25T16:23:24.592Z,1.35
2019-03-25T16:24:57.413Z,1.50
2019-03-25T16:26:30.269Z,1.52
2019-03-25T16:28:03.054Z,1.40
2019-03-25T16:29:35.871Z,1.80
2019-03-25T16:31:08.732Z,1.22
2019-03-25T16:32:41.528Z,1.50
2019-03-25T16:34:14.394Z,1.35
2019-03-25T16:35:47.197Z,1.50
2019-03-25T16:37:29.758Z,1.32
2019-03-25T16:39:04.871Z,1.42
2019-03-25T16:40:37.786Z,1.27
2019-03-25T16:42:10.626Z,1.30
2019-03-25T16:43:43.397Z,1.30
2019-03-25T16:45:16.262Z,2.00
2019-03-25T16:46:49.161Z,1.87
2019-03-25T16:48:21.988Z,1.65
2019-03-25T16:49:54.735Z,1.72
2019-03-25T16:51:27.518Z,1.60
2019-03-25T16:53:00.837Z,2.52
2019-03-25T16:54:33.729Z,2.33
2019-03-25T16:56:06.440Z,1.82
2019-03-25T16:57:39.241Z,1.85
2019-03-25T16:59:12.060Z,1.35
2019-03-25T17:00:44.734Z,1.90
2019-03-25T17:02:17.444Z,1.70
2019-03-25T17:03:50.229Z,1.50
2019-03-25T17:05:23.140Z,1.65
2019-03-25T17:06:55.993Z,1.90
2019-03-25T17:08:28.910Z,1.90
2019-03-25T17:10:01.616Z,1.65
2019-03-25T17:11:34.439Z,1.22
2019-03-25T17:13:07.220Z,1.00
2019-03-25T17:14:40.044Z,1.27
2019-03-25T17:16:12.813Z,1.50
2019-03-25T17:17:45.726Z,1.25
2019-03-25T17:19:18.445Z,1.10
2019-03-25T17:20:51.226Z,1.12
2019-03-25T17:22:23.959Z,1.30
2019-03-25T17:23:56.731Z,1.40
2019-03-25T17:25:29.559Z,1.32
2019-03-25T17:27:02.401Z,1.47
2019-03-25T17:28:35.176Z,1.60
2019-03-25T17:30:11.700Z,1.40
2019-03-25T17:31:44.475Z,1.40
2019-03-25T17:33:17.256Z,1.40
2019-03-25T17:34:49.974Z,1.60
2019-03-25T17:36:22.880Z,1.67
2019-03-25T17:37:55.582Z,2.90
2019-03-25T17:39:28.228Z,2.30
2019-03-25T17:41:01.140Z,2.10
2019-03-25T17:42:34.013Z,1.42
2019-03-25T17:44:06.813Z,1.50
2019-03-25T17:45:39.605Z,1.98
2019-03-25T17:47:12.287Z,3.05
2019-03-25T17:48:45.158Z,1.60
2019-03-25T17:50:17.982Z,1.70
2019-03-25T17:51:50.772Z,1.70
2019-03-25T17:53:23.583Z,1.70
2019-03-25T17:54:56.285Z,2.20
2019-03-25T17:56:29.099Z,2.17
2019-03-25T17:58:01.886Z,1.98
2019-03-25T17:59:34.679Z,2.00
2019-03-25T18:01:32.593Z,1.95
2019-03-25T18:03:10.953Z,1.50
2019-03-25T18:04:40.057Z,1.85
2019-03-25T18:06:12.852Z,1.62
2019-03-25T18:07:45.670Z,1.65
2019-03-25T18:09:23.963Z,1.50
2019-03-25T18:10:56.800Z,1.87
2019-03-25T18:12:38.374Z,2.08
2019-03-25T18:14:04.184Z,2.15
2019-03-25T18:15:37.027Z,1.90
2019-03-25T18:17:09.845Z,2.25
2019-03-25T18:18:42.680Z,2.17
2019-03-25T18:20:18.955Z,2.10
2019-03-25T18:21:50.121Z,2.25
2019-03-25T18:23:22.786Z,2.20
2019-03-25T18:24:55.438Z,2.30
2019-03-25T18:26:28.277Z,2.50
2019-03-25T18:28:01.124Z,2.65
2019-03-25T18:29:34.099Z,2.98
2019-03-25T18:31:06.855Z,3.08
2019-03-25T18:32:39.716Z,2.90
2019-03-25T18:34:12.476Z,3.30
2019-03-25T18:35:45.286Z,2.60
2019-03-25T18:37:18.114Z,2.58
2019-03-25T18:38:50.915Z,2.60
2019-03-25T18:40:23.794Z,2.77
2019-03-25T18:41:56.622Z,2.90
2019-03-25T18:43:29.362Z,2.90
2019-03-25T18:45:02.118Z,3.20
2019-03-25T18:46:34.845Z,3.25
2019-03-25T18:48:07.542Z,2.83
2019-03-25T18:49:40.309Z,3.10
2019-03-25T18:51:13.039Z,3.02
2019-03-25T18:52:45.746Z,3.37
2019-03-25T18:54:18.386Z,3.10
2019-03-25T18:55:51.174Z,2.60
2019-03-25T18:57:23.836Z,3.15
2019-03-25T18:58:56.680Z,2.70
2019-03-25T19:00:31.057Z,2.70
2019-03-25T19:02:04.179Z,2.52
2019-03-25T19:03:37.138Z,2.45
2019-03-25T19:05:09.974Z,2.75
2019-03-25T19:06:44.681Z,2.70
2019-03-25T19:08:18.060Z,2.85
2019-03-25T19:09:52.633Z,2.80
2019-03-25T19:11:31.085Z,2.90
2019-03-25T19:13:00.126Z,5.58
2019-03-25T19:14:32.821Z,7.28
2019-03-25T19:16:05.681Z,6.05
2019-03-25T19:17:38.546Z,4.60
2019-03-25T19:19:11.430Z,4.30
2019-03-25T19:20:44.275Z,3.33
2019-03-25T19:22:17.148Z,3.10
2019-03-25T19:23:50.000Z,3.00
2019-03-25T19:25:22.906Z,2.85
2019-03-25T19:26:55.840Z,2.50
2019-03-25T19:28:28.666Z,2.60
2019-03-25T19:30:01.572Z,3.10
2019-03-25T19:31:34.225Z,2.50
2019-03-25T19:33:07.039Z,3.60
2019-03-25T19:34:39.889Z,4.03
2019-03-25T19:36:12.688Z,3.75
2019-03-25T19:37:45.625Z,3.70
2019-03-25T19:39:18.411Z,3.30
2019-03-25T19:40:51.208Z,3.33
2019-03-25T19:42:24.007Z,3.30
2019-03-25T19:43:57.030Z,2.60
2019-03-25T19:45:29.880Z,2.67
2019-03-25T19:47:02.837Z,2.70
2019-03-25T19:48:35.650Z,2.58
2019-03-25T19:50:08.771Z,2.70
2019-03-25T19:51:41.610Z,2.50
2019-03-25T19:53:19.304Z,2.60
2019-03-25T19:54:49.127Z,2.65
2019-03-25T19:56:22.012Z,2.33
2019-03-25T19:57:54.860Z,2.50
2019-03-25T19:59:27.716Z,2.47
2019-03-25T20:01:00.557Z,2.62
2019-03-25T20:02:33.400Z,2.42
2019-03-25T20:04:06.338Z,2.50
2019-03-25T20:05:39.230Z,2.72
2019-03-25T20:07:12.080Z,2.62
2019-03-25T20:08:44.885Z,2.70
2019-03-25T20:10:31.337Z,2.70
2019-03-25T20:12:04.455Z,2.75
2019-03-25T20:13:37.287Z,2.90
2019-03-25T20:15:10.121Z,2.47
2019-03-25T20:16:43.001Z,2.55
2019-03-25T20:18:15.742Z,2.77
2019-03-25T20:19:48.573Z,2.77
2019-03-25T20:21:21.511Z,2.60
2019-03-25T20:22:54.416Z,2.98
2019-03-25T20:24:27.320Z,3.05
2019-03-25T20:26:00.182Z,3.10
2019-03-25T20:27:33.123Z,3.45
2019-03-25T20:29:06.991Z,4.10
2019-03-25T20:30:39.839Z,3.30
2019-03-25T20:32:12.644Z,3.60
2019-03-25T20:33:45.480Z,3.87
2019-03-25T20:35:18.425Z,4.15
2019-03-25T20:36:51.318Z,4.53
2019-03-25T20:38:24.270Z,4.70
2019-03-25T20:39:57.165Z,3.70
2019-03-25T20:41:30.022Z,3.85
2019-03-25T20:43:03.001Z,3.17
2019-03-25T20:44:35.971Z,3.47
2019-03-25T20:46:08.886Z,4.50
2019-03-25T20:47:41.807Z,5.75